sensor_id;sensor_type;location;lat;lon;timestamp;P1;durP1;ratioP1;P2;durP2;ratioP2
78848;SDS011;68197;41.864;21.942;2023-03-01T00:00:05;35.03;;;20.17;;
78848;SDS011;68197;41.864;21.942;2023-03-01T00:02:32;33.35;;;20.58;;
78848;SDS011;68197;41.864;21.942;2023-03-01T00:05:01;33.17;;;19.00;;
78848;SDS011;68197;41.864;21.942;2023-03-01T00:07:27;36.50;;;20.42;;
78848;SDS011;68197;41.864;21.942;2023-03-01T00:09:53;34.22;;;19.25;;
78848;SDS011;68197;41.864;21.942;2023-03-01T00:12:20;32.22;;;19.67;;
78848;SDS011;68197;41.864;21.942;2023-03-01T00:14:46;34.78;;;19.23;;
78848;SDS011;68197;41.864;21.942;2023-03-01T00:17:12;36.78;;;19.67;;
78848;SDS011;68197;41.864;21.942;2023-03-01T00:19:38;35.70;;;21.40;;
78848;SDS011;68197;41.864;21.942;2023-03-01T00:22:04;33.78;;;18.23;;
78848;SDS011;68197;41.864;21.942;2023-03-01T00:24:31;34.55;;;18.10;;
78848;SDS011;68197;41.864;21.942;2023-03-01T00:39:14;36.08;;;17.45;;
78848;SDS011;68197;41.864;21.942;2023-03-01T00:41:41;32.92;;;17.98;;
78848;SDS011;68197;41.864;21.942;2023-03-01T00:44:07;33.67;;;17.98;;
78848;SDS011;68197;41.864;21.942;2023-03-01T00:46:36;32.28;;;18.05;;
78848;SDS011;68197;41.864;21.942;2023-03-01T00:49:02;32.63;;;17.70;;
78848;SDS011;68197;41.864;21.942;2023-03-01T00:51:29;31.67;;;19.63;;
78848;SDS011;68197;41.864;21.942;2023-03-01T00:53:57;34.53;;;19.08;;
78848;SDS011;68197;41.864;21.942;2023-03-01T00:56:23;30.65;;;18.23;;
78848;SDS011;68197;41.864;21.942;2023-03-01T00:58:53;38.42;;;19.73;;
78848;SDS011;68197;41.864;21.942;2023-03-01T01:01:20;33.78;;;19.73;;
78848;SDS011;68197;41.864;21.942;2023-03-01T01:04:02;36.88;;;19.20;;
78848;SDS011;68197;41.864;21.942;2023-03-01T01:06:32;32.80;;;18.50;;
78848;SDS011;68197;41.864;21.942;2023-03-01T01:09:02;35.78;;;19.02;;
78848;SDS011;68197;41.864;21.942;2023-03-01T01:11:31;34.92;;;19.23;;
78848;SDS011;68197;41.864;21.942;2023-03-01T01:13:59;33.28;;;19.00;;
78848;SDS011;68197;41.864;21.942;2023-03-01T01:16:26;34.38;;;19.70;;
78848;SDS011;68197;41.864;21.942;2023-03-01T01:18:53;31.50;;;18.67;;
78848;SDS011;68197;41.864;21.942;2023-03-01T01:21:21;33.15;;;19.30;;
78848;SDS011;68197;41.864;21.942;2023-03-01T01:23:48;37.00;;;19.02;;
78848;SDS011;68197;41.864;21.942;2023-03-01T01:26:15;33.53;;;19.00;;
78848;SDS011;68197;41.864;21.942;2023-03-01T01:28:42;40.30;;;20.33;;
78848;SDS011;68197;41.864;21.942;2023-03-01T01:31:08;33.20;;;18.63;;
78848;SDS011;68197;41.864;21.942;2023-03-01T01:33:35;35.88;;;19.73;;
78848;SDS011;68197;41.864;21.942;2023-03-01T01:36:02;35.53;;;18.45;;
78848;SDS011;68197;41.864;21.942;2023-03-01T01:38:29;36.55;;;19.00;;
78848;SDS011;68197;41.864;21.942;2023-03-01T01:40:55;32.03;;;18.45;;
78848;SDS011;68197;41.864;21.942;2023-03-01T01:43:28;29.52;;;19.05;;
78848;SDS011;68197;41.864;21.942;2023-03-01T01:45:56;31.88;;;18.48;;
78848;SDS011;68197;41.864;21.942;2023-03-01T01:48:24;31.92;;;18.08;;
78848;SDS011;68197;41.864;21.942;2023-03-01T01:51:05;37.88;;;19.10;;
78848;SDS011;68197;41.864;21.942;2023-03-01T01:53:32;32.55;;;17.10;;
78848;SDS011;68197;41.864;21.942;2023-03-01T01:55:58;33.55;;;17.92;;
78848;SDS011;68197;41.864;21.942;2023-03-01T01:58:27;33.63;;;18.15;;
78848;SDS011;68197;41.864;21.942;2023-03-01T02:03:25;33.45;;;16.13;;
78848;SDS011;68197;41.864;21.942;2023-03-01T02:05:58;31.55;;;17.67;;
78848;SDS011;68197;41.864;21.942;2023-03-01T02:08:27;29.48;;;17.23;;
78848;SDS011;68197;41.864;21.942;2023-03-01T02:10:55;34.55;;;18.85;;
78848;SDS011;68197;41.864;21.942;2023-03-01T02:13:22;30.13;;;15.40;;
78848;SDS011;68197;41.864;21.942;2023-03-01T02:15:48;30.50;;;17.88;;
78848;SDS011;68197;41.864;21.942;2023-03-01T02:18:17;31.63;;;18.90;;
78848;SDS011;68197;41.864;21.942;2023-03-01T02:23:19;30.80;;;15.77;;
78848;SDS011;68197;41.864;21.942;2023-03-01T02:28:33;29.75;;;17.15;;
78848;SDS011;68197;41.864;21.942;2023-03-01T02:31:00;33.47;;;15.75;;
78848;SDS011;68197;41.864;21.942;2023-03-01T02:33:45;33.92;;;18.42;;
78848;SDS011;68197;41.864;21.942;2023-03-01T02:36:20;31.63;;;18.23;;
78848;SDS011;68197;41.864;21.942;2023-03-01T02:38:47;32.25;;;17.63;;
78848;SDS011;68197;41.864;21.942;2023-03-01T02:41:14;30.92;;;16.70;;
78848;SDS011;68197;41.864;21.942;2023-03-01T02:43:41;29.20;;;17.85;;
78848;SDS011;68197;41.864;21.942;2023-03-01T02:46:08;29.67;;;17.33;;
78848;SDS011;68197;41.864;21.942;2023-03-01T02:48:42;29.40;;;16.70;;
78848;SDS011;68197;41.864;21.942;2023-03-01T02:56:38;30.92;;;16.92;;
78848;SDS011;68197;41.864;21.942;2023-03-01T02:59:05;27.10;;;15.27;;
78848;SDS011;68197;41.864;21.942;2023-03-01T03:01:31;28.80;;;17.27;;
78848;SDS011;68197;41.864;21.942;2023-03-01T03:04:04;28.08;;;16.13;;
78848;SDS011;68197;41.864;21.942;2023-03-01T03:06:30;28.48;;;16.60;;
78848;SDS011;68197;41.864;21.942;2023-03-01T03:08:57;26.77;;;15.85;;
78848;SDS011;68197;41.864;21.942;2023-03-01T03:11:23;29.90;;;16.63;;
78848;SDS011;68197;41.864;21.942;2023-03-01T03:13:49;26.67;;;15.95;;
78848;SDS011;68197;41.864;21.942;2023-03-01T03:16:17;31.02;;;18.17;;
78848;SDS011;68197;41.864;21.942;2023-03-01T03:18:43;28.90;;;18.15;;
78848;SDS011;68197;41.864;21.942;2023-03-01T03:21:10;30.73;;;18.63;;
78848;SDS011;68197;41.864;21.942;2023-03-01T03:23:37;28.05;;;17.20;;
78848;SDS011;68197;41.864;21.942;2023-03-01T03:26:03;29.02;;;15.25;;
78848;SDS011;68197;41.864;21.942;2023-03-01T03:28:30;30.80;;;17.55;;
78848;SDS011;68197;41.864;21.942;2023-03-01T03:30:56;30.13;;;17.35;;
78848;SDS011;68197;41.864;21.942;2023-03-01T03:33:23;26.90;;;15.32;;
78848;SDS011;68197;41.864;21.942;2023-03-01T03:35:50;24.65;;;17.15;;
78848;SDS011;68197;41.864;21.942;2023-03-01T03:38:18;31.80;;;17.60;;
78848;SDS011;68197;41.864;21.942;2023-03-01T03:41:01;28.13;;;15.65;;
78848;SDS011;68197;41.864;21.942;2023-03-01T03:43:32;25.98;;;15.25;;
78848;SDS011;68197;41.864;21.942;2023-03-01T03:45:59;26.30;;;15.95;;
78848;SDS011;68197;41.864;21.942;2023-03-01T03:48:25;32.70;;;18.15;;
78848;SDS011;68197;41.864;21.942;2023-03-01T03:50:53;28.92;;;17.77;;
78848;SDS011;68197;41.864;21.942;2023-03-01T03:53:20;32.72;;;18.17;;
78848;SDS011;68197;41.864;21.942;2023-03-01T03:55:46;30.08;;;17.77;;
78848;SDS011;68197;41.864;21.942;2023-03-01T03:58:17;33.45;;;19.10;;
78848;SDS011;68197;41.864;21.942;2023-03-01T04:00:44;38.90;;;21.80;;
78848;SDS011;68197;41.864;21.942;2023-03-01T04:03:12;33.83;;;20.73;;
78848;SDS011;68197;41.864;21.942;2023-03-01T04:05:39;29.70;;;16.27;;
78848;SDS011;68197;41.864;21.942;2023-03-01T04:08:06;27.48;;;16.98;;
78848;SDS011;68197;41.864;21.942;2023-03-01T04:10:37;31.10;;;16.80;;
78848;SDS011;68197;41.864;21.942;2023-03-01T04:13:07;29.83;;;18.27;;
78848;SDS011;68197;41.864;21.942;2023-03-01T04:15:34;30.80;;;17.92;;
78848;SDS011;68197;41.864;21.942;2023-03-01T04:18:01;33.88;;;19.48;;
78848;SDS011;68197;41.864;21.942;2023-03-01T04:20:28;29.30;;;16.75;;
78848;SDS011;68197;41.864;21.942;2023-03-01T04:22:59;29.20;;;16.83;;
78848;SDS011;68197;41.864;21.942;2023-03-01T04:25:39;36.85;;;19.02;;
78848;SDS011;68197;41.864;21.942;2023-03-01T04:28:05;28.65;;;16.42;;
78848;SDS011;68197;41.864;21.942;2023-03-01T04:30:32;27.25;;;15.55;;
78848;SDS011;68197;41.864;21.942;2023-03-01T04:33:10;26.73;;;17.23;;
78848;SDS011;68197;41.864;21.942;2023-03-01T04:35:36;27.50;;;18.08;;
78848;SDS011;68197;41.864;21.942;2023-03-01T04:38:04;28.42;;;16.95;;
78848;SDS011;68197;41.864;21.942;2023-03-01T04:40:30;26.52;;;14.05;;
78848;SDS011;68197;41.864;21.942;2023-03-01T04:42:56;30.27;;;19.23;;
78848;SDS011;68197;41.864;21.942;2023-03-01T04:45:23;32.33;;;19.30;;
78848;SDS011;68197;41.864;21.942;2023-03-01T04:47:49;29.33;;;19.67;;
78848;SDS011;68197;41.864;21.942;2023-03-01T04:50:17;29.55;;;17.33;;
78848;SDS011;68197;41.864;21.942;2023-03-01T04:52:46;34.65;;;22.20;;
78848;SDS011;68197;41.864;21.942;2023-03-01T04:55:12;28.95;;;17.70;;
78848;SDS011;68197;41.864;21.942;2023-03-01T04:57:39;30.58;;;17.98;;
78848;SDS011;68197;41.864;21.942;2023-03-01T05:00:06;35.53;;;20.85;;
78848;SDS011;68197;41.864;21.942;2023-03-01T05:02:45;28.05;;;16.35;;
78848;SDS011;68197;41.864;21.942;2023-03-01T05:05:13;29.33;;;17.75;;
78848;SDS011;68197;41.864;21.942;2023-03-01T05:07:39;31.08;;;18.00;;
78848;SDS011;68197;41.864;21.942;2023-03-01T05:10:05;29.35;;;19.15;;
78848;SDS011;68197;41.864;21.942;2023-03-01T05:12:39;33.80;;;22.30;;
78848;SDS011;68197;41.864;21.942;2023-03-01T05:15:10;35.13;;;19.40;;
78848;SDS011;68197;41.864;21.942;2023-03-01T05:17:38;35.47;;;20.58;;
78848;SDS011;68197;41.864;21.942;2023-03-01T05:20:05;36.60;;;22.25;;
78848;SDS011;68197;41.864;21.942;2023-03-01T05:22:35;34.00;;;19.33;;
78848;SDS011;68197;41.864;21.942;2023-03-01T05:25:04;34.03;;;20.55;;
78848;SDS011;68197;41.864;21.942;2023-03-01T05:27:32;27.73;;;16.15;;
78848;SDS011;68197;41.864;21.942;2023-03-01T05:29:58;28.50;;;15.68;;
78848;SDS011;68197;41.864;21.942;2023-03-01T05:32:40;30.85;;;18.70;;
78848;SDS011;68197;41.864;21.942;2023-03-01T05:35:11;35.50;;;19.23;;
78848;SDS011;68197;41.864;21.942;2023-03-01T05:37:44;35.63;;;20.27;;
78848;SDS011;68197;41.864;21.942;2023-03-01T05:40:11;29.58;;;18.20;;
78848;SDS011;68197;41.864;21.942;2023-03-01T05:42:44;36.08;;;21.23;;
78848;SDS011;68197;41.864;21.942;2023-03-01T05:45:11;31.55;;;18.20;;
78848;SDS011;68197;41.864;21.942;2023-03-01T05:47:38;31.75;;;21.52;;
78848;SDS011;68197;41.864;21.942;2023-03-01T05:50:09;29.10;;;17.50;;
78848;SDS011;68197;41.864;21.942;2023-03-01T05:52:36;31.23;;;20.52;;
78848;SDS011;68197;41.864;21.942;2023-03-01T05:55:04;33.08;;;18.40;;
78848;SDS011;68197;41.864;21.942;2023-03-01T05:57:34;28.25;;;18.70;;
78848;SDS011;68197;41.864;21.942;2023-03-01T06:00:00;31.30;;;19.42;;
78848;SDS011;68197;41.864;21.942;2023-03-01T06:02:29;35.97;;;20.38;;
78848;SDS011;68197;41.864;21.942;2023-03-01T06:04:55;33.47;;;20.30;;
78848;SDS011;68197;41.864;21.942;2023-03-01T06:07:21;28.90;;;19.98;;
78848;SDS011;68197;41.864;21.942;2023-03-01T06:09:50;33.50;;;19.20;;
78848;SDS011;68197;41.864;21.942;2023-03-01T06:12:16;31.10;;;18.42;;
78848;SDS011;68197;41.864;21.942;2023-03-01T06:14:43;29.98;;;20.05;;
78848;SDS011;68197;41.864;21.942;2023-03-01T06:17:13;27.48;;;16.48;;
78848;SDS011;68197;41.864;21.942;2023-03-01T06:19:39;28.08;;;17.77;;
78848;SDS011;68197;41.864;21.942;2023-03-01T06:22:06;30.27;;;19.42;;
78848;SDS011;68197;41.864;21.942;2023-03-01T06:24:33;32.28;;;18.90;;
78848;SDS011;68197;41.864;21.942;2023-03-01T06:27:01;29.90;;;19.42;;
78848;SDS011;68197;41.864;21.942;2023-03-01T06:29:28;35.55;;;22.15;;
78848;SDS011;68197;41.864;21.942;2023-03-01T06:32:00;34.25;;;21.88;;
78848;SDS011;68197;41.864;21.942;2023-03-01T06:34:26;37.67;;;24.27;;
78848;SDS011;68197;41.864;21.942;2023-03-01T06:36:52;33.05;;;19.60;;
78848;SDS011;68197;41.864;21.942;2023-03-01T06:39:19;29.17;;;20.23;;
78848;SDS011;68197;41.864;21.942;2023-03-01T06:41:45;31.40;;;19.90;;
78848;SDS011;68197;41.864;21.942;2023-03-01T06:44:17;34.08;;;22.67;;
78848;SDS011;68197;41.864;21.942;2023-03-01T06:46:45;33.38;;;21.95;;
78848;SDS011;68197;41.864;21.942;2023-03-01T06:49:11;33.40;;;20.73;;
78848;SDS011;68197;41.864;21.942;2023-03-01T06:51:38;35.40;;;23.23;;
78848;SDS011;68197;41.864;21.942;2023-03-01T06:54:04;26.05;;;19.35;;
78848;SDS011;68197;41.864;21.942;2023-03-01T06:56:31;34.33;;;22.10;;
78848;SDS011;68197;41.864;21.942;2023-03-01T06:59:13;29.55;;;19.27;;
78848;SDS011;68197;41.864;21.942;2023-03-01T07:01:39;35.30;;;23.17;;
78848;SDS011;68197;41.864;21.942;2023-03-01T07:04:05;36.20;;;21.90;;
78848;SDS011;68197;41.864;21.942;2023-03-01T07:06:32;31.58;;;20.70;;
78848;SDS011;68197;41.864;21.942;2023-03-01T07:08:58;28.80;;;19.08;;
78848;SDS011;68197;41.864;21.942;2023-03-01T07:11:24;33.25;;;22.73;;
78848;SDS011;68197;41.864;21.942;2023-03-01T07:16:20;31.70;;;22.20;;
78848;SDS011;68197;41.864;21.942;2023-03-01T07:18:55;28.23;;;19.63;;
78848;SDS011;68197;41.864;21.942;2023-03-01T07:21:23;29.50;;;20.33;;
78848;SDS011;68197;41.864;21.942;2023-03-01T07:23:50;33.63;;;22.63;;
78848;SDS011;68197;41.864;21.942;2023-03-01T07:26:18;32.28;;;24.23;;
78848;SDS011;68197;41.864;21.942;2023-03-01T07:28:47;31.77;;;22.00;;
78848;SDS011;68197;41.864;21.942;2023-03-01T07:31:16;34.72;;;23.23;;
78848;SDS011;68197;41.864;21.942;2023-03-01T07:33:44;34.10;;;21.38;;
78848;SDS011;68197;41.864;21.942;2023-03-01T07:36:16;33.30;;;23.73;;
78848;SDS011;68197;41.864;21.942;2023-03-01T07:38:43;35.88;;;24.10;;
78848;SDS011;68197;41.864;21.942;2023-03-01T07:41:09;36.30;;;25.77;;
78848;SDS011;68197;41.864;21.942;2023-03-01T07:50:59;38.20;;;24.95;;
78848;SDS011;68197;41.864;21.942;2023-03-01T07:53:28;27.48;;;20.25;;
78848;SDS011;68197;41.864;21.942;2023-03-01T07:58:28;26.17;;;17.98;;
78848;SDS011;68197;41.864;21.942;2023-03-01T08:01:00;28.30;;;21.35;;
78848;SDS011;68197;41.864;21.942;2023-03-01T08:03:29;25.75;;;20.30;;
78848;SDS011;68197;41.864;21.942;2023-03-01T08:06:05;26.35;;;19.80;;
78848;SDS011;68197;41.864;21.942;2023-03-01T08:08:34;36.83;;;26.92;;
78848;SDS011;68197;41.864;21.942;2023-03-01T08:11:04;29.98;;;18.90;;
78848;SDS011;68197;41.864;21.942;2023-03-01T08:13:31;32.08;;;22.52;;
78848;SDS011;68197;41.864;21.942;2023-03-01T08:16:11;32.03;;;24.27;;
78848;SDS011;68197;41.864;21.942;2023-03-01T08:18:40;35.70;;;26.98;;
78848;SDS011;68197;41.864;21.942;2023-03-01T08:21:07;32.45;;;22.33;;
78848;SDS011;68197;41.864;21.942;2023-03-01T08:23:40;39.72;;;26.45;;
78848;SDS011;68197;41.864;21.942;2023-03-01T08:26:09;37.97;;;27.17;;
78848;SDS011;68197;41.864;21.942;2023-03-01T08:28:42;30.48;;;21.80;;
78848;SDS011;68197;41.864;21.942;2023-03-01T08:31:31;29.48;;;22.25;;
78848;SDS011;68197;41.864;21.942;2023-03-01T08:33:59;32.22;;;23.42;;
78848;SDS011;68197;41.864;21.942;2023-03-01T08:36:26;28.98;;;22.27;;
78848;SDS011;68197;41.864;21.942;2023-03-01T08:38:53;27.13;;;21.33;;
78848;SDS011;68197;41.864;21.942;2023-03-01T08:41:24;35.75;;;25.98;;
78848;SDS011;68197;41.864;21.942;2023-03-01T08:43:54;34.38;;;27.75;;
78848;SDS011;68197;41.864;21.942;2023-03-01T08:46:35;28.05;;;20.52;;
78848;SDS011;68197;41.864;21.942;2023-03-01T08:49:08;35.42;;;25.52;;
78848;SDS011;68197;41.864;21.942;2023-03-01T08:51:39;31.42;;;22.73;;
78848;SDS011;68197;41.864;21.942;2023-03-01T08:54:12;33.13;;;23.65;;
78848;SDS011;68197;41.864;21.942;2023-03-01T08:56:40;33.42;;;23.33;;
78848;SDS011;68197;41.864;21.942;2023-03-01T08:59:06;37.65;;;25.27;;
78848;SDS011;68197;41.864;21.942;2023-03-01T09:01:37;34.33;;;24.98;;
78848;SDS011;68197;41.864;21.942;2023-03-01T09:04:08;36.65;;;24.67;;
78848;SDS011;68197;41.864;21.942;2023-03-01T09:06:39;36.58;;;25.85;;
78848;SDS011;68197;41.864;21.942;2023-03-01T09:09:06;37.50;;;26.67;;
78848;SDS011;68197;41.864;21.942;2023-03-01T09:11:34;34.05;;;23.65;;
78848;SDS011;68197;41.864;21.942;2023-03-01T09:14:06;29.92;;;22.40;;
78848;SDS011;68197;41.864;21.942;2023-03-01T09:16:32;27.20;;;18.30;;
78848;SDS011;68197;41.864;21.942;2023-03-01T09:19:03;27.92;;;18.73;;
78848;SDS011;68197;41.864;21.942;2023-03-01T09:21:32;21.10;;;14.93;;
78848;SDS011;68197;41.864;21.942;2023-03-01T09:26:29;21.50;;;16.02;;
78848;SDS011;68197;41.864;21.942;2023-03-01T09:28:56;25.77;;;17.92;;
78848;SDS011;68197;41.864;21.942;2023-03-01T09:31:24;22.10;;;17.17;;
78848;SDS011;68197;41.864;21.942;2023-03-01T09:33:51;25.27;;;19.65;;
78848;SDS011;68197;41.864;21.942;2023-03-01T09:36:21;27.58;;;20.27;;
78848;SDS011;68197;41.864;21.942;2023-03-01T09:39:00;30.25;;;22.70;;
78848;SDS011;68197;41.864;21.942;2023-03-01T09:41:36;31.13;;;21.55;;
78848;SDS011;68197;41.864;21.942;2023-03-01T09:46:43;23.02;;;16.90;;
78848;SDS011;68197;41.864;21.942;2023-03-01T09:54:46;23.05;;;18.05;;
78848;SDS011;68197;41.864;21.942;2023-03-01T09:57:34;24.95;;;19.90;;
78848;SDS011;68197;41.864;21.942;2023-03-01T10:02:48;22.33;;;15.45;;
78848;SDS011;68197;41.864;21.942;2023-03-01T10:10:34;30.95;;;20.40;;
78848;SDS011;68197;41.864;21.942;2023-03-01T10:13:03;23.08;;;16.35;;
78848;SDS011;68197;41.864;21.942;2023-03-01T10:15:38;20.35;;;15.73;;
78848;SDS011;68197;41.864;21.942;2023-03-01T10:18:11;23.67;;;17.60;;
78848;SDS011;68197;41.864;21.942;2023-03-01T10:20:45;24.13;;;17.40;;
78848;SDS011;68197;41.864;21.942;2023-03-01T10:23:15;29.92;;;22.55;;
78848;SDS011;68197;41.864;21.942;2023-03-01T10:25:51;31.08;;;23.17;;
78848;SDS011;68197;41.864;21.942;2023-03-01T10:30:47;29.70;;;16.42;;
78848;SDS011;68197;41.864;21.942;2023-03-01T10:33:17;25.48;;;18.65;;
78848;SDS011;68197;41.864;21.942;2023-03-01T10:35:49;31.30;;;21.92;;
78848;SDS011;68197;41.864;21.942;2023-03-01T10:38:16;25.73;;;19.85;;
78848;SDS011;68197;41.864;21.942;2023-03-01T10:40:50;23.65;;;16.45;;
78848;SDS011;68197;41.864;21.942;2023-03-01T10:43:16;25.63;;;20.13;;
78848;SDS011;68197;41.864;21.942;2023-03-01T10:45:43;26.85;;;19.75;;
78848;SDS011;68197;41.864;21.942;2023-03-01T10:48:15;29.02;;;20.25;;
78848;SDS011;68197;41.864;21.942;2023-03-01T10:56:00;37.17;;;26.10;;
78848;SDS011;68197;41.864;21.942;2023-03-01T10:58:29;40.63;;;29.05;;
78848;SDS011;68197;41.864;21.942;2023-03-01T11:01:00;32.00;;;21.92;;
78848;SDS011;68197;41.864;21.942;2023-03-01T11:03:31;36.15;;;25.17;;
78848;SDS011;68197;41.864;21.942;2023-03-01T11:05:59;33.47;;;20.42;;
78848;SDS011;68197;41.864;21.942;2023-03-01T11:08:45;38.85;;;25.25;;
78848;SDS011;68197;41.864;21.942;2023-03-01T11:13:50;27.60;;;19.48;;
78848;SDS011;68197;41.864;21.942;2023-03-01T11:16:22;33.00;;;22.08;;
78848;SDS011;68197;41.864;21.942;2023-03-01T11:18:56;33.20;;;22.67;;
78848;SDS011;68197;41.864;21.942;2023-03-01T11:21:22;27.60;;;19.30;;
78848;SDS011;68197;41.864;21.942;2023-03-01T11:23:49;31.02;;;20.45;;
78848;SDS011;68197;41.864;21.942;2023-03-01T11:26:15;31.25;;;21.58;;
78848;SDS011;68197;41.864;21.942;2023-03-01T11:28:45;52.40;;;32.03;;
78848;SDS011;68197;41.864;21.942;2023-03-01T11:31:14;46.08;;;29.77;;
78848;SDS011;68197;41.864;21.942;2023-03-01T11:33:47;36.33;;;22.95;;
78848;SDS011;68197;41.864;21.942;2023-03-01T11:38:49;34.75;;;22.85;;
78848;SDS011;68197;41.864;21.942;2023-03-01T11:41:23;38.67;;;23.58;;
78848;SDS011;68197;41.864;21.942;2023-03-01T11:43:59;52.63;;;26.33;;
78848;SDS011;68197;41.864;21.942;2023-03-01T11:51:48;35.25;;;23.40;;
78848;SDS011;68197;41.864;21.942;2023-03-01T11:54:27;47.50;;;23.23;;
78848;SDS011;68197;41.864;21.942;2023-03-01T11:57:14;31.73;;;23.15;;
78848;SDS011;68197;41.864;21.942;2023-03-01T11:59:51;41.28;;;25.15;;
78848;SDS011;68197;41.864;21.942;2023-03-01T12:02:28;35.17;;;25.73;;
78848;SDS011;68197;41.864;21.942;2023-03-01T12:20:28;31.92;;;25.40;;
78848;SDS011;68197;41.864;21.942;2023-03-01T12:23:02;36.15;;;25.08;;
78848;SDS011;68197;41.864;21.942;2023-03-01T12:28:25;36.85;;;28.15;;
78848;SDS011;68197;41.864;21.942;2023-03-01T12:33:45;23.35;;;17.60;;
78848;SDS011;68197;41.864;21.942;2023-03-01T12:38:50;29.92;;;22.83;;
78848;SDS011;68197;41.864;21.942;2023-03-01T12:41:31;33.00;;;22.02;;
78848;SDS011;68197;41.864;21.942;2023-03-01T12:46:41;29.48;;;23.13;;
78848;SDS011;68197;41.864;21.942;2023-03-01T12:49:18;29.52;;;23.08;;
78848;SDS011;68197;41.864;21.942;2023-03-01T12:52:02;26.33;;;20.80;;
78848;SDS011;68197;41.864;21.942;2023-03-01T12:54:33;27.45;;;20.27;;
78848;SDS011;68197;41.864;21.942;2023-03-01T12:59:45;28.73;;;21.27;;
78848;SDS011;68197;41.864;21.942;2023-03-01T13:07:24;26.27;;;20.25;;
78848;SDS011;68197;41.864;21.942;2023-03-01T13:15:35;31.58;;;22.45;;
78848;SDS011;68197;41.864;21.942;2023-03-01T13:20:51;40.67;;;23.83;;
78848;SDS011;68197;41.864;21.942;2023-03-01T13:28:36;31.75;;;21.20;;
78848;SDS011;68197;41.864;21.942;2023-03-01T13:31:04;36.20;;;30.00;;
78848;SDS011;68197;41.864;21.942;2023-03-01T13:36:01;51.60;;;40.03;;
78848;SDS011;68197;41.864;21.942;2023-03-01T13:41:02;37.58;;;24.42;;
78848;SDS011;68197;41.864;21.942;2023-03-01T13:43:31;39.50;;;29.10;;
78848;SDS011;68197;41.864;21.942;2023-03-01T13:45:57;48.00;;;31.25;;
78848;SDS011;68197;41.864;21.942;2023-03-01T13:48:28;48.17;;;29.42;;
78848;SDS011;68197;41.864;21.942;2023-03-01T13:50:57;63.58;;;30.60;;
78848;SDS011;68197;41.864;21.942;2023-03-01T13:53:26;44.97;;;31.77;;
78848;SDS011;68197;41.864;21.942;2023-03-01T13:58:27;35.75;;;27.35;;
78848;SDS011;68197;41.864;21.942;2023-03-01T14:03:22;46.30;;;30.83;;
78848;SDS011;68197;41.864;21.942;2023-03-01T14:08:36;37.58;;;27.98;;
78848;SDS011;68197;41.864;21.942;2023-03-01T14:11:24;40.20;;;30.73;;
78848;SDS011;68197;41.864;21.942;2023-03-01T14:16:29;36.80;;;27.65;;
78848;SDS011;68197;41.864;21.942;2023-03-01T14:21:26;44.97;;;31.85;;
78848;SDS011;68197;41.864;21.942;2023-03-01T14:23:52;40.58;;;24.70;;
78848;SDS011;68197;41.864;21.942;2023-03-01T14:26:24;34.75;;;23.20;;
78848;SDS011;68197;41.864;21.942;2023-03-01T14:28:51;40.45;;;24.20;;
78848;SDS011;68197;41.864;21.942;2023-03-01T14:31:31;48.22;;;31.92;;
78848;SDS011;68197;41.864;21.942;2023-03-01T14:33:58;35.95;;;26.80;;
78848;SDS011;68197;41.864;21.942;2023-03-01T14:36:29;33.35;;;25.60;;
78848;SDS011;68197;41.864;21.942;2023-03-01T14:38:59;37.13;;;25.98;;
78848;SDS011;68197;41.864;21.942;2023-03-01T14:41:33;36.40;;;24.38;;
78848;SDS011;68197;41.864;21.942;2023-03-01T14:44:02;39.50;;;29.48;;
78848;SDS011;68197;41.864;21.942;2023-03-01T14:46:36;44.33;;;31.40;;
78848;SDS011;68197;41.864;21.942;2023-03-01T14:51:57;79.15;;;46.72;;
78848;SDS011;68197;41.864;21.942;2023-03-01T14:55:25;62.60;;;46.10;;
78848;SDS011;68197;41.864;21.942;2023-03-01T14:57:25;65.55;;;45.38;;
78848;SDS011;68197;41.864;21.942;2023-03-01T15:00:13;60.40;;;40.63;;
78848;SDS011;68197;41.864;21.942;2023-03-01T15:02:42;50.47;;;30.73;;
78848;SDS011;68197;41.864;21.942;2023-03-01T15:05:09;35.38;;;23.17;;
78848;SDS011;68197;41.864;21.942;2023-03-01T15:07:37;43.85;;;29.77;;
78848;SDS011;68197;41.864;21.942;2023-03-01T15:10:05;38.72;;;25.75;;
78848;SDS011;68197;41.864;21.942;2023-03-01T15:12:35;53.45;;;33.40;;
78848;SDS011;68197;41.864;21.942;2023-03-01T15:15:06;58.50;;;31.77;;
78848;SDS011;68197;41.864;21.942;2023-03-01T15:17:44;58.47;;;32.63;;
78848;SDS011;68197;41.864;21.942;2023-03-01T15:20:18;56.75;;;28.70;;
78848;SDS011;68197;41.864;21.942;2023-03-01T15:22:50;60.55;;;30.27;;
78848;SDS011;68197;41.864;21.942;2023-03-01T15:25:18;56.70;;;29.88;;
78848;SDS011;68197;41.864;21.942;2023-03-01T15:27:48;52.72;;;29.30;;
78848;SDS011;68197;41.864;21.942;2023-03-01T15:30:22;71.05;;;41.72;;
78848;SDS011;68197;41.864;21.942;2023-03-01T15:32:49;74.40;;;40.08;;
78848;SDS011;68197;41.864;21.942;2023-03-01T15:35:44;70.28;;;39.80;;
78848;SDS011;68197;41.864;21.942;2023-03-01T15:38:26;75.85;;;41.42;;
78848;SDS011;68197;41.864;21.942;2023-03-01T15:40:53;101.07;;;46.05;;
78848;SDS011;68197;41.864;21.942;2023-03-01T15:46:04;22.45;;;16.42;;
78848;SDS011;68197;41.864;21.942;2023-03-01T15:48:31;22.13;;;15.55;;
78848;SDS011;68197;41.864;21.942;2023-03-01T15:50:57;24.67;;;17.58;;
78848;SDS011;68197;41.864;21.942;2023-03-01T15:53:24;27.67;;;18.13;;
78848;SDS011;68197;41.864;21.942;2023-03-01T15:55:52;24.25;;;19.17;;
78848;SDS011;68197;41.864;21.942;2023-03-01T15:58:19;25.65;;;18.73;;
78848;SDS011;68197;41.864;21.942;2023-03-01T16:00:46;19.40;;;14.38;;
78848;SDS011;68197;41.864;21.942;2023-03-01T16:03:13;26.23;;;22.45;;
78848;SDS011;68197;41.864;21.942;2023-03-01T16:05:46;35.65;;;22.13;;
78848;SDS011;68197;41.864;21.942;2023-03-01T16:08:13;25.45;;;20.33;;
78848;SDS011;68197;41.864;21.942;2023-03-01T16:10:40;30.23;;;20.52;;
78848;SDS011;68197;41.864;21.942;2023-03-01T16:13:16;38.28;;;26.63;;
78848;SDS011;68197;41.864;21.942;2023-03-01T16:15:42;33.58;;;23.05;;
78848;SDS011;68197;41.864;21.942;2023-03-01T16:18:27;59.00;;;39.97;;
78848;SDS011;68197;41.864;21.942;2023-03-01T16:20:53;49.72;;;37.35;;
78848;SDS011;68197;41.864;21.942;2023-03-01T16:23:19;54.30;;;40.58;;
78848;SDS011;68197;41.864;21.942;2023-03-01T16:25:53;70.28;;;50.38;;
78848;SDS011;68197;41.864;21.942;2023-03-01T16:28:24;70.03;;;54.72;;
78848;SDS011;68197;41.864;21.942;2023-03-01T16:30:51;75.05;;;53.35;;
78848;SDS011;68197;41.864;21.942;2023-03-01T16:36:07;87.25;;;64.72;;
78848;SDS011;68197;41.864;21.942;2023-03-01T16:41:13;88.88;;;70.43;;
78848;SDS011;68197;41.864;21.942;2023-03-01T16:43:42;104.18;;;76.97;;
78848;SDS011;68197;41.864;21.942;2023-03-01T16:48:47;247.70;;;150.65;;
78848;SDS011;68197;41.864;21.942;2023-03-01T16:51:25;281.63;;;170.73;;
78848;SDS011;68197;41.864;21.942;2023-03-01T16:53:54;236.07;;;145.98;;
78848;SDS011;68197;41.864;21.942;2023-03-01T16:56:25;215.27;;;135.35;;